Time;durP1;ratioP1;P1;durP2;ratioP2;P2;SDS_P1;SDS_P2;PMS_P1;PMS_P2;Temp;Humidity;BMP_temperature;BMP_pressure;BME280_temperature;BME280_humidity;BME280_pressure;Samples;Min_cycle;Max_cycle;Signal;HPM_P1;HPM_P2
2021/09/12 00:02:04;;;;;;;3.28;2.88;;;22.10;78.10;;;;;;5133004;28;20103;-44
2021/09/12 00:04:30;;;;;;;3.53;2.92;;;22.10;78.10;;;;;;5133471;27;20406;-49
2021/09/12 00:06:55;;;;;;;2.92;2.63;;;22.00;78.00;;;;;;5136927;27;20047;-48
2021/09/12 00:09:21;;;;;;;3.10;2.80;;;22.10;78.10;;;;;;5136946;27;20118;-47
2021/09/12 00:11:47;;;;;;;3.17;2.88;;;22.00;78.00;;;;;;5136866;27;20436;-48
2021/09/12 00:14:12;;;;;;;3.28;2.97;;;22.00;78.00;;;;;;5136630;27;20051;-43
2021/09/12 00:16:38;;;;;;;3.20;2.90;;;22.10;78.10;;;;;;5136635;27;20096;-49
2021/09/12 00:19:04;;;;;;;3.03;2.72;;;22.00;78.00;;;;;;5136349;27;20446;-48
2021/09/12 00:21:30;;;;;;;3.63;2.90;;;22.00;78.00;;;;;;5136332;27;20053;-48
2021/09/12 00:23:55;;;;;;;3.08;2.78;;;22.10;78.10;;;;;;5136628;27;20090;-46
2021/09/12 00:26:21;;;;;;;3.35;2.88;;;22.10;78.10;;;;;;5136299;27;20482;-48
2021/09/12 00:28:47;;;;;;;3.10;2.80;;;22.10;78.10;;;;;;5118228;27;20440;-47
2021/09/12 00:31:12;;;;;;;3.00;2.80;;;22.00;78.00;;;;;;5136634;27;20566;-47
2021/09/12 00:33:38;;;;;;;3.08;2.80;;;22.00;78.00;;;;;;5136411;27;20038;-50
2021/09/12 00:36:04;;;;;;;3.35;2.80;;;22.10;78.10;;;;;;5135622;27;20039;-46
2021/09/12 00:38:30;;;;;;;3.25;2.95;;;22.00;78.00;;;;;;5136210;27;20131;-47
2021/09/12 00:40:57;;;;;;;3.10;2.80;;;22.10;78.10;;;;;;5136206;27;20520;-46
2021/09/12 00:43:23;;;;;;;2.90;2.60;;;22.00;78.00;;;;;;5117960;27;20050;-49
2021/09/12 00:45:56;;;;;;;3.20;2.90;;;22.00;78.00;;;;;;5136649;27;20046;-46
2021/09/12 00:48:22;;;;;;;2.80;2.60;;;22.00;78.00;;;;;;5135441;27;20039;-46
2021/09/12 00:50:50;;;;;;;2.95;2.65;;;22.00;78.00;;;;;;5136166;27;20524;-47
2021/09/12 00:53:17;;;;;;;3.35;3.05;;;22.00;78.00;;;;;;5136005;27;20398;-45
2021/09/12 00:55:44;;;;;;;3.00;2.70;;;22.00;78.00;;;;;;5135984;27;20039;-45
2021/09/12 00:58:21;;;;;;;2.80;2.60;;;22.00;78.00;;;;;;5135974;27;20039;-45
2021/09/12 01:00:46;;;;;;;3.35;3.05;;;22.00;78.00;;;;;;5136124;27;20482;-48
2021/09/12 01:03:12;;;;;;;2.80;2.60;;;22.00;78.00;;;;;;5136007;27;20095;-51
2021/09/12 01:05:38;;;;;;;3.20;2.90;;;22.00;78.00;;;;;;5135731;27;20043;-48
2021/09/12 01:08:05;;;;;;;3.08;2.78;;;22.10;78.00;;;;;;5135176;27;20039;-46
2021/09/12 01:10:31;;;;;;;3.45;2.78;;;22.00;78.00;;;;;;5135579;27;20495;-47
2021/09/12 01:12:56;;;;;;;3.05;2.75;;;22.00;78.00;;;;;;5135901;27;20042;-48
2021/09/12 01:15:22;;;;;;;3.05;2.75;;;22.00;78.00;;;;;;5135153;27;20039;-46
2021/09/12 01:17:48;;;;;;;2.90;2.60;;;22.00;78.00;;;;;;5116871;27;20506;-48
2021/09/12 01:20:13;;;;;;;3.28;2.97;;;22.00;78.00;;;;;;5134875;27;20054;-48
2021/09/12 01:22:39;;;;;;;3.22;2.92;;;22.00;78.00;;;;;;5134714;27;20050;-49
2021/09/12 01:25:06;;;;;;;3.22;2.92;;;22.00;78.00;;;;;;5135423;27;20088;-50
2021/09/12 01:27:31;;;;;;;3.28;2.97;;;22.00;78.00;;;;;;5135681;27;20047;-46
2021/09/12 01:30:00;;;;;;;3.10;2.80;;;22.00;78.60;;;;;;5116195;27;20049;-45
2021/09/12 01:32:25;;;;;;;3.30;2.90;;;22.00;77.90;;;;;;5135270;27;20046;-48
2021/09/12 01:34:51;;;;;;;2.90;2.60;;;22.10;78.70;;;;;;5116654;27;20043;-46
2021/09/12 01:37:17;;;;;;;2.72;2.53;;;22.00;78.00;;;;;;5135180;27;20054;-43
2021/09/12 01:39:42;;;;;;;3.08;2.78;;;22.00;77.90;;;;;;5134727;27;20034;-46
2021/09/12 01:42:08;;;;;;;2.88;2.58;;;22.00;78.00;;;;;;5135468;27;20050;-45
2021/09/12 01:44:34;;;;;;;2.95;2.63;;;22.00;78.00;;;;;;5135468;27;20042;-48
2021/09/12 01:46:59;;;;;;;2.78;2.58;;;22.00;77.90;;;;;;5135214;27;20406;-44
2021/09/12 01:49:25;;;;;;;3.80;2.95;;;22.00;77.90;;;;;;5135141;27;20070;-50
2021/09/12 01:51:52;;;;;;;3.20;2.90;;;22.00;78.00;;;;;;5134606;27;20035;-46
2021/09/12 01:54:18;;;;;;;2.83;2.63;;;22.00;77.90;;;;;;5133927;27;20043;-47
2021/09/12 01:56:44;;;;;;;3.13;2.83;;;22.00;78.20;;;;;;5134881;27;20149;-48
2021/09/12 01:59:10;;;;;;;2.75;2.55;;;22.00;78.00;;;;;;5135000;27;20040;-47
2021/09/12 02:01:36;;;;;;;3.25;2.95;;;22.00;77.90;;;;;;5134464;27;20050;-47
2021/09/12 02:04:02;;;;;;;3.35;2.70;;;22.00;77.90;;;;;;5134716;27;20055;-45
2021/09/12 02:06:27;;;;;;;3.00;2.70;;;22.00;78.60;;;;;;5134692;27;20035;-46
2021/09/12 02:08:53;;;;;;;3.28;2.97;;;22.00;77.90;;;;;;5134437;27;20479;-47
2021/09/12 02:11:19;;;;;;;2.85;2.55;;;22.00;77.90;;;;;;5133599;27;20040;-47
2021/09/12 02:13:45;;;;;;;3.13;2.70;;;22.00;77.90;;;;;;5134649;27;20053;-48
2021/09/12 02:16:11;;;;;;;2.70;2.50;;;22.00;77.90;;;;;;5134657;27;20074;-50
2021/09/12 02:18:37;;;;;;;2.42;2.22;;;22.00;77.90;;;;;;5134475;27;20050;-47
2021/09/12 02:21:03;;;;;;;3.17;2.88;;;22.00;77.90;;;;;;5134209;27;20070;-47
2021/09/12 02:23:29;;;;;;;3.03;2.72;;;22.00;77.90;;;;;;5134321;27;20070;-47
2021/09/12 02:25:55;;;;;;;2.78;2.58;;;22.00;77.90;;;;;;5133521;27;20122;-48
2021/09/12 02:28:20;;;;;;;2.97;2.65;;;22.00;77.90;;;;;;5133746;27;20066;-48
2021/09/12 02:30:46;;;;;;;2.45;2.25;;;22.00;77.90;;;;;;5134304;27;20040;-48
2021/09/12 02:33:13;;;;;;;2.90;2.70;;;22.00;77.90;;;;;;5133672;27;20088;-45
2021/09/12 02:35:38;;;;;;;2.88;2.47;;;22.00;77.90;;;;;;5134144;27;20039;-47
2021/09/12 02:38:05;;;;;;;2.60;2.40;;;22.10;78.00;;;;;;5134284;27;20051;-46
2021/09/12 02:40:31;;;;;;;3.13;2.63;;;22.00;77.90;;;;;;5133742;27;20548;-49
2021/09/12 02:42:56;;;;;;;3.10;2.80;;;22.00;77.90;;;;;;5133836;27;20035;-50
2021/09/12 02:45:22;;;;;;;3.13;2.83;;;22.00;77.90;;;;;;5133601;27;20043;-46
2021/09/12 02:47:48;;;;;;;3.00;2.70;;;22.00;77.90;;;;;;5134189;27;20042;-46
2021/09/12 02:50:13;;;;;;;3.20;2.70;;;22.00;77.90;;;;;;5133817;27;20467;-46
2021/09/12 02:52:39;;;;;;;2.47;2.15;;;22.00;77.90;;;;;;5133861;27;20039;-47
2021/09/12 02:55:06;;;;;;;2.50;2.30;;;22.00;77.90;;;;;;5133933;27;20462;-44
2021/09/12 02:57:32;;;;;;;2.90;2.60;;;22.00;77.90;;;;;;5133187;27;20122;-47
2021/09/12 02:59:58;;;;;;;2.63;2.42;;;22.00;78.20;;;;;;5133680;27;20126;-48
2021/09/12 03:02:25;;;;;;;2.92;2.72;;;22.00;77.90;;;;;;5134040;27;20095;-47
2021/09/12 03:04:51;;;;;;;2.63;2.42;;;22.00;77.90;;;;;;5133823;27;20517;-49
2021/09/12 03:07:16;;;;;;;2.67;2.45;;;22.00;77.90;;;;;;5133774;27;20086;-46
2021/09/12 03:09:42;;;;;;;2.90;2.63;;;22.00;77.90;;;;;;5133507;27;20078;-47
2021/09/12 03:12:08;;;;;;;2.90;2.60;;;22.00;77.90;;;;;;5133177;27;20054;-45
2021/09/12 03:14:33;;;;;;;3.00;2.75;;;22.00;77.90;;;;;;5133562;27;20035;-47
2021/09/12 03:16:59;;;;;;;2.90;2.60;;;22.00;77.90;;;;;;5133160;27;20494;-49
2021/09/12 03:19:25;;;;;;;3.10;2.80;;;22.00;77.90;;;;;;5133519;27;20375;-45
2021/09/12 03:21:51;;;;;;;2.92;2.72;;;22.00;77.90;;;;;;5133228;27;20133;-48
2021/09/12 03:24:16;;;;;;;2.78;2.55;;;22.00;77.90;;;;;;5133616;27;20081;-45
2021/09/12 03:26:42;;;;;;;2.35;2.15;;;22.00;77.90;;;;;;5132896;27;20467;-48
2021/09/12 03:29:07;;;;;;;2.80;2.58;;;21.90;77.80;;;;;;5132703;27;20114;-46
2021/09/12 03:31:33;;;;;;;2.90;2.60;;;21.90;77.90;;;;;;5133449;27;20379;-46
2021/09/12 03:33:59;;;;;;;3.13;2.80;;;22.00;77.90;;;;;;5133253;27;20062;-48
2021/09/12 03:36:26;;;;;;;2.90;2.60;;;21.90;77.80;;;;;;5132887;28;20054;-44
2021/09/12 03:38:51;;;;;;;2.30;2.10;;;21.90;77.80;;;;;;5134761;27;20387;-49
2021/09/12 03:41:17;;;;;;;3.40;2.65;;;22.00;77.90;;;;;;5140264;27;20088;-49
2021/09/12 03:43:43;;;;;;;2.80;2.55;;;22.00;77.90;;;;;;5139659;27;20386;-49
2021/09/12 03:46:08;;;;;;;2.40;2.20;;;22.00;77.90;;;;;;5139763;27;20061;-45
2021/09/12 03:48:34;;;;;;;3.00;2.40;;;21.90;77.80;;;;;;5139733;27;20495;-47
2021/09/12 03:51:00;;;;;;;3.33;2.80;;;22.00;77.80;;;;;;5140061;27;20380;-47
2021/09/12 03:53:25;;;;;;;2.40;2.20;;;22.00;77.90;;;;;;5140019;27;20078;-49
2021/09/12 03:55:51;;;;;;;2.42;2.20;;;21.90;77.80;;;;;;5121252;27;20541;-46
2021/09/12 03:58:16;;;;;;;2.50;2.30;;;22.00;77.90;;;;;;5139366;27;20047;-46
2021/09/12 04:00:42;;;;;;;3.17;2.30;;;22.00;77.90;;;;;;5138975;27;20072;-47
2021/09/12 04:03:08;;;;;;;2.50;2.22;;;22.00;77.90;;;;;;5139987;27;20031;-49
2021/09/12 04:05:34;;;;;;;3.30;2.40;;;21.90;77.80;;;;;;5139997;27;20035;-47
2021/09/12 04:07:59;;;;;;;2.72;2.38;;;21.90;77.80;;;;;;5139740;27;20372;-47
2021/09/12 04:10:25;;;;;;;2.67;2.42;;;22.00;77.90;;;;;;5139213;27;20043;-45
2021/09/12 04:12:50;;;;;;;2.50;2.30;;;22.00;77.90;;;;;;5139528;27;20043;-46
2021/09/12 04:15:16;;;;;;;2.58;2.30;;;22.00;77.90;;;;;;5139434;27;20035;-46
2021/09/12 04:17:42;;;;;;;2.47;2.22;;;21.90;77.80;;;;;;5120981;27;20379;-47
2021/09/12 04:20:09;;;;;;;2.42;2.22;;;22.00;77.90;;;;;;5139236;27;20398;-47
2021/09/12 04:22:35;;;;;;;2.72;2.53;;;22.00;77.90;;;;;;5139637;27;20091;-46
2021/09/12 04:25:01;;;;;;;2.47;2.22;;;21.90;77.80;;;;;;5139431;27;20262;-47
2021/09/12 04:27:26;;;;;;;2.63;2.42;;;22.00;77.90;;;;;;5139470;27;20132;-46
2021/09/12 04:29:52;;;;;;;2.70;2.38;;;22.00;77.90;;;;;;5139154;27;20042;-44
2021/09/12 04:32:18;;;;;;;2.80;2.30;;;21.90;77.90;;;;;;5138597;27;20130;-47
2021/09/12 04:34:47;;;;;;;3.03;2.30;;;21.90;77.90;;;;;;5139261;27;20035;-50
2021/09/12 04:37:13;;;;;;;2.47;2.20;;;22.00;77.90;;;;;;5139639;27;20118;-48
2021/09/12 04:39:38;;;;;;;2.25;2.05;;;21.90;77.80;;;;;;5139175;27;20047;-46
2021/09/12 04:42:04;;;;;;;2.47;2.03;;;21.90;77.90;;;;;;5103016;27;20061;-49
2021/09/12 04:44:30;;;;;;;2.92;2.53;;;21.90;77.90;;;;;;5139570;27;20505;-48
2021/09/12 04:46:56;;;;;;;2.60;2.13;;;21.90;77.90;;;;;;5138758;27;20183;-46
2021/09/12 04:49:22;;;;;;;2.60;2.25;;;21.90;77.90;;;;;;5139154;27;20050;-48
2021/09/12 04:51:47;;;;;;;2.85;2.55;;;21.90;77.80;;;;;;5136141;27;20046;-51
2021/09/12 04:54:13;;;;;;;2.00;1.80;;;21.90;77.80;;;;;;5135898;27;20043;-50
2021/09/12 04:56:38;;;;;;;2.40;2.20;;;21.90;77.80;;;;;;5135863;27;20035;-50
2021/09/12 04:59:04;;;;;;;2.25;2.05;;;21.90;77.80;;;;;;5135690;27;20039;-46
2021/09/12 05:01:32;;;;;;;2.30;2.10;;;21.90;77.80;;;;;;5134938;27;20088;-46
2021/09/12 05:03:58;;;;;;;2.88;2.30;;;21.90;77.90;;;;;;5114478;27;20126;-49
2021/09/12 05:06:23;;;;;;;2.20;2.00;;;21.90;77.90;;;;;;5135378;27;20111;-47
2021/09/12 05:08:49;;;;;;;2.20;2.00;;;21.80;77.80;;;;;;5136103;27;20497;-46
2021/09/12 05:11:15;;;;;;;2.45;2.25;;;21.90;77.80;;;;;;5136338;27;20074;-49
2021/09/12 05:13:40;;;;;;;2.40;1.98;;;21.90;77.80;;;;;;5135515;27;20039;-48
2021/09/12 05:16:06;;;;;;;2.40;2.20;;;21.90;77.90;;;;;;5136173;27;20082;-46
2021/09/12 05:18:32;;;;;;;2.55;2.35;;;21.90;77.80;;;;;;5135769;27;20444;-50
2021/09/12 05:20:58;;;;;;;2.22;1.80;;;21.90;77.80;;;;;;5135152;27;20062;-44
2021/09/12 05:23:23;;;;;;;2.30;2.10;;;21.90;77.90;;;;;;5135640;27;20047;-48
2021/09/12 05:25:50;;;;;;;2.38;2.17;;;21.90;77.80;;;;;;5135574;27;20043;-47
2021/09/12 05:28:17;;;;;;;2.30;2.10;;;21.90;77.80;;;;;;5135820;27;20044;-49
2021/09/12 05:30:43;;;;;;;2.40;2.20;;;21.90;77.80;;;;;;5135296;27;20171;-46
2021/09/12 05:33:08;;;;;;;2.30;2.10;;;21.90;77.80;;;;;;5135142;27;20470;-46
2021/09/12 05:35:34;;;;;;;2.17;1.98;;;21.90;77.80;;;;;;5134815;27;20047;-47
2021/09/12 05:38:00;;;;;;;2.08;1.88;;;21.90;77.90;;;;;;5135127;27;20118;-47
2021/09/12 05:40:26;;;;;;;2.47;2.28;;;21.90;77.80;;;;;;5135565;27;20115;-46
2021/09/12 05:42:51;;;;;;;2.58;2.38;;;21.90;77.80;;;;;;5135089;27;20043;-44
2021/09/12 05:45:17;;;;;;;2.38;2.10;;;21.90;77.80;;;;;;5115777;27;20047;-48
2021/09/12 05:47:43;;;;;;;2.50;2.28;;;21.90;77.80;;;;;;5134361;27;20046;-49
2021/09/12 05:50:09;;;;;;;2.40;2.20;;;21.90;77.80;;;;;;5134234;27;20083;-47
2021/09/12 05:52:35;;;;;;;2.13;1.92;;;21.90;77.80;;;;;;5134762;27;20035;-46
2021/09/12 05:55:01;;;;;;;2.38;2.17;;;21.90;77.80;;;;;;5134738;27;20065;-45
2021/09/12 05:57:27;;;;;;;2.33;1.95;;;21.90;77.90;;;;;;5134955;27;20144;-47
2021/09/12 05:59:53;;;;;;;2.25;2.05;;;21.90;77.80;;;;;;5134852;27;20039;-46
2021/09/12 06:02:18;;;;;;;2.25;2.00;;;21.90;77.90;;;;;;5134214;27;20457;-45
2021/09/12 06:04:44;;;;;;;1.98;1.88;;;21.90;78.10;;;;;;5116004;27;20088;-47
2021/09/12 06:07:11;;;;;;;2.15;1.95;;;21.80;77.80;;;;;;5133962;27;20071;-47
2021/09/12 06:09:38;;;;;;;2.40;2.20;;;21.90;77.80;;;;;;5134589;27;20051;-48
2021/09/12 06:12:05;;;;;;;2.25;2.05;;;21.90;77.90;;;;;;5134761;27;20050;-46
2021/09/12 06:14:31;;;;;;;2.28;2.08;;;21.80;77.80;;;;;;5134603;27;20126;-45
2021/09/12 06:16:57;;;;;;;2.15;1.67;;;21.80;77.80;;;;;;5115410;27;20126;-42
2021/09/12 06:19:22;;;;;;;1.95;1.80;;;21.90;77.80;;;;;;5134066;27;20039;-47
2021/09/12 06:21:48;;;;;;;2.17;1.98;;;21.90;77.80;;;;;;5133839;27;20058;-44
2021/09/12 06:24:13;;;;;;;2.30;2.10;;;21.90;77.80;;;;;;5134351;27;20051;-46
2021/09/12 06:26:39;;;;;;;2.13;1.80;;;21.90;77.80;;;;;;5134129;27;20055;-43
2021/09/12 06:29:05;;;;;;;2.17;1.98;;;21.90;77.80;;;;;;5115467;27;20047;-43
2021/09/12 06:31:30;;;;;;;2.97;2.08;;;21.80;77.80;;;;;;5122802;27;20050;-46
2021/09/12 06:33:56;;;;;;;2.30;2.00;;;21.90;77.80;;;;;;5118021;27;20047;-45
2021/09/12 06:36:22;;;;;;;1.67;1.58;;;21.90;77.80;;;;;;5112773;28;20055;-46
2021/09/12 06:38:47;;;;;;;1.77;1.67;;;21.90;77.90;;;;;;5125514;27;20043;-49
2021/09/12 06:41:13;;;;;;;2.00;1.70;;;21.90;77.80;;;;;;5133785;27;20031;-49
2021/09/12 06:43:39;;;;;;;1.83;1.73;;;21.90;77.80;;;;;;5134034;27;20047;-50
2021/09/12 06:46:06;;;;;;;2.63;2.10;;;21.90;77.80;;;;;;5133144;27;20539;-49
2021/09/12 06:48:31;;;;;;;2.13;1.92;;;21.90;77.80;;;;;;5133520;27;20031;-49
2021/09/12 06:50:57;;;;;;;2.25;1.83;;;21.90;77.80;;;;;;5133621;27;20110;-47
2021/09/12 06:53:23;;;;;;;2.00;1.85;;;21.90;77.90;;;;;;5132759;27;20513;-48
2021/09/12 06:55:49;;;;;;;2.33;1.95;;;21.90;77.80;;;;;;5133400;27;20075;-48
2021/09/12 06:58:16;;;;;;;2.28;1.98;;;21.90;77.80;;;;;;5128580;27;20100;-45
2021/09/12 07:00:42;;;;;;;2.10;1.90;;;21.80;77.80;;;;;;5131693;27;20047;-44
2021/09/12 07:03:07;;;;;;;1.60;1.50;;;21.80;77.80;;;;;;5112413;27;20050;-43
2021/09/12 07:05:33;;;;;;;2.10;1.90;;;21.90;77.80;;;;;;5131973;27;20031;-44
2021/09/12 07:07:58;;;;;;;1.70;1.60;;;21.90;77.90;;;;;;5130941;27;20122;-45
2021/09/12 07:10:24;;;;;;;2.17;1.98;;;21.90;77.80;;;;;;5131884;27;20071;-49
2021/09/12 07:12:51;;;;;;;2.03;1.83;;;21.90;77.90;;;;;;5132075;27;20478;-46
2021/09/12 07:15:17;;;;;;;1.80;1.70;;;21.80;77.80;;;;;;5131054;27;20130;-47
2021/09/12 07:17:42;;;;;;;1.60;1.50;;;21.90;77.80;;;;;;5131708;27;20131;-44
2021/09/12 07:20:09;;;;;;;2.53;1.80;;;21.90;77.80;;;;;;5132333;27;20051;-47
2021/09/12 07:22:35;;;;;;;2.50;2.17;;;21.90;77.80;;;;;;5130911;27;20059;-46
2021/09/12 07:25:01;;;;;;;2.05;1.80;;;21.90;77.80;;;;;;5131797;27;20039;-46
2021/09/12 07:27:26;;;;;;;1.80;1.70;;;21.90;78.50;;;;;;5132411;27;20122;-45
2021/09/12 07:29:52;;;;;;;2.10;1.83;;;21.90;77.90;;;;;;5130748;27;20164;-48
2021/09/12 07:32:17;;;;;;;2.10;1.90;;;21.80;77.80;;;;;;5132127;27;20376;-45
2021/09/12 07:34:43;;;;;;;2.08;1.70;;;21.80;77.80;;;;;;5131839;27;20535;-45
2021/09/12 07:37:09;;;;;;;1.92;1.80;;;21.80;77.80;;;;;;5130786;28;20057;-44
2021/09/12 07:39:34;;;;;;;2.20;2.00;;;21.80;77.80;;;;;;5132451;28;20122;-44
2021/09/12 07:42:02;;;;;;;2.83;1.70;;;21.80;77.80;;;;;;5131896;28;20089;-46
2021/09/12 07:44:27;;;;;;;1.75;1.65;;;21.80;77.80;;;;;;5130892;28;20047;-43
2021/09/12 07:46:53;;;;;;;2.38;1.80;;;21.90;77.90;;;;;;5132288;28;20039;-43
2021/09/12 07:49:19;;;;;;;1.77;1.67;;;21.80;77.80;;;;;;5132692;28;20483;-47
2021/09/12 07:51:45;;;;;;;2.22;1.80;;;21.70;77.70;;;;;;5130879;28;20096;-46
2021/09/12 07:54:11;;;;;;;1.80;1.70;;;21.80;77.80;;;;;;5132478;28;20039;-48
2021/09/12 07:56:36;;;;;;;2.00;1.70;;;21.90;77.90;;;;;;5132043;28;20044;-43
2021/09/12 07:59:02;;;;;;;2.47;1.90;;;21.80;77.80;;;;;;5130705;28;20050;-43
2021/09/12 08:01:28;;;;;;;2.00;1.80;;;21.80;77.80;;;;;;5131616;28;20082;-46
2021/09/12 08:03:54;;;;;;;1.75;1.65;;;21.80;77.80;;;;;;5132437;28;20070;-40
2021/09/12 08:06:19;;;;;;;1.50;1.40;;;21.90;77.90;;;;;;5127495;28;20031;-44
2021/09/12 08:08:45;;;;;;;2.00;1.80;;;21.90;77.90;;;;;;5132997;28;20055;-46
2021/09/12 08:11:11;;;;;;;1.88;1.77;;;21.80;78.50;;;;;;5132916;28;20117;-44
2021/09/12 08:13:36;;;;;;;1.92;1.77;;;21.90;77.90;;;;;;5130724;28;20039;-47
2021/09/12 08:16:02;;;;;;;2.38;1.80;;;21.80;77.80;;;;;;5132104;28;20113;-46
2021/09/12 08:18:28;;;;;;;1.75;1.65;;;21.80;77.80;;;;;;5131670;28;20043;-46
2021/09/12 08:20:54;;;;;;;1.48;1.38;;;21.80;78.50;;;;;;5130913;28;20051;-44
2021/09/12 08:23:19;;;;;;;2.00;1.80;;;21.80;78.50;;;;;;5131839;28;20410;-46
2021/09/12 08:25:49;;;;;;;1.85;1.75;;;21.80;77.80;;;;;;5133918;27;20564;-42
2021/09/12 08:28:15;;;;;;;1.60;1.50;;;21.80;77.80;;;;;;5135666;27;20051;-43
2021/09/12 08:30:40;;;;;;;1.90;1.60;;;21.80;77.80;;;;;;5124797;27;20039;-46
2021/09/12 08:33:16;;;;;;;2.05;1.50;;;21.80;77.80;;;;;;5135701;27;20039;-45
2021/09/12 08:35:43;;;;;;;2.15;1.70;;;21.90;77.90;;;;;;5134500;27;20043;-46
2021/09/12 08:38:10;;;;;;;2.13;1.83;;;21.80;77.80;;;;;;5115681;27;20061;-43
2021/09/12 08:40:36;;;;;;;1.60;1.50;;;21.80;77.80;;;;;;5135926;27;20035;-44
2021/09/12 08:43:02;;;;;;;1.85;1.73;;;21.80;77.90;;;;;;5133829;27;20043;-46
2021/09/12 08:45:28;;;;;;;2.78;1.80;;;21.80;77.90;;;;;;5134786;27;20041;-45
2021/09/12 08:47:54;;;;;;;1.67;1.55;;;21.80;77.90;;;;;;5135693;27;20047;-42
2021/09/12 08:50:21;;;;;;;1.80;1.70;;;21.90;78.00;;;;;;5116460;27;20078;-41
2021/09/12 08:52:47;;;;;;;2.00;1.80;;;21.80;77.90;;;;;;5134259;27;20050;-41
2021/09/12 08:55:13;;;;;;;1.75;1.50;;;21.80;77.90;;;;;;5135616;27;20035;-46
2021/09/12 08:57:50;;;;;;;1.60;1.50;;;21.80;77.90;;;;;;5132864;27;20069;-39
2021/09/12 09:00:19;;;;;;;1.98;1.70;;;21.90;78.00;;;;;;5134327;27;20122;-43
2021/09/12 09:02:46;;;;;;;2.08;1.88;;;21.80;77.90;;;;;;5134176;27;20050;-41
2021/09/12 09:05:12;;;;;;;2.25;1.70;;;21.80;77.90;;;;;;5131954;27;20371;-46
2021/09/12 09:07:37;;;;;;;2.25;1.90;;;21.80;77.90;;;;;;5133699;27;20049;-47
2021/09/12 09:10:16;;;;;;;2.10;1.90;;;21.80;77.90;;;;;;5134464;27;20406;-49
2021/09/12 09:12:42;;;;;;;2.03;1.80;;;21.90;78.00;;;;;;5134451;27;20047;-49
2021/09/12 09:15:12;;;;;;;2.42;1.80;;;21.80;77.90;;;;;;5134069;27;20047;-46
2021/09/12 09:17:49;;;;;;;1.83;1.73;;;21.80;78.00;;;;;;5135116;27;20550;-45
2021/09/12 09:20:19;;;;;;;2.00;1.77;;;21.90;78.00;;;;;;5134730;27;20053;-44
2021/09/12 09:22:48;;;;;;;3.38;1.83;;;21.80;78.00;;;;;;5134870;27;20440;-45
2021/09/12 09:25:20;;;;;;;2.30;1.80;;;21.80;78.00;;;;;;5135147;27;20054;-47
2021/09/12 09:28:04;;;;;;;1.90;1.70;;;21.80;78.00;;;;;;5134890;27;20129;-47
2021/09/12 09:30:36;;;;;;;2.20;1.63;;;21.80;78.00;;;;;;5134563;27;20447;-47
2021/09/12 09:33:20;;;;;;;2.00;1.80;;;21.80;78.00;;;;;;5134390;27;20059;-47
2021/09/12 09:35:52;;;;;;;1.60;1.50;;;21.80;78.10;;;;;;5134231;27;20058;-45
2021/09/12 09:38:20;;;;;;;1.67;1.50;;;21.80;78.10;;;;;;5133282;27;20133;-43
2021/09/12 09:41:05;;;;;;;2.22;1.80;;;21.80;78.10;;;;;;5134628;27;20041;-46
2021/09/12 09:43:46;;;;;;;2.03;1.83;;;21.90;78.20;;;;;;5134109;27;20658;-47
2021/09/12 09:46:36;;;;;;;1.92;1.70;;;21.90;78.20;;;;;;5110369;27;20143;-44
2021/09/12 09:49:28;;;;;;;1.80;1.70;;;21.80;78.20;;;;;;5123013;27;20047;-39
2021/09/12 09:52:01;;;;;;;2.35;1.92;;;21.90;78.20;;;;;;5113857;28;20046;-44
2021/09/12 09:54:32;;;;;;;2.25;1.90;;;21.80;78.20;;;;;;5112531;28;20513;-43
2021/09/12 09:56:59;;;;;;;2.00;1.85;;;21.80;78.20;;;;;;5113786;28;20104;-43
2021/09/12 09:59:27;;;;;;;1.63;1.50;;;21.90;78.20;;;;;;5124600;27;20061;-43
2021/09/12 10:01:54;;;;;;;2.00;1.70;;;21.80;78.20;;;;;;5133745;27;20057;-42
2021/09/12 10:04:23;;;;;;;2.22;1.98;;;21.80;78.20;;;;;;5133699;27;20061;-45
2021/09/12 10:06:49;;;;;;;2.38;2.00;;;21.90;78.30;;;;;;5132593;27;20101;-46
2021/09/12 10:09:17;;;;;;;1.70;1.60;;;21.90;78.30;;;;;;5133314;27;20517;-46
2021/09/12 10:11:47;;;;;;;2.22;1.80;;;21.90;78.30;;;;;;5134099;27;20092;-43
2021/09/12 10:14:18;;;;;;;1.90;1.80;;;21.90;78.20;;;;;;5134063;27;20039;-47
2021/09/12 10:16:46;;;;;;;2.63;1.85;;;21.80;78.20;;;;;;5132150;27;20108;-43
2021/09/12 10:19:11;;;;;;;2.60;1.90;;;21.90;78.30;;;;;;5113130;27;20051;-40
2021/09/12 10:21:37;;;;;;;2.00;1.90;;;21.90;78.90;;;;;;5122852;27;20183;-41
2021/09/12 10:24:08;;;;;;;2.60;1.77;;;21.80;78.30;;;;;;5114630;27;20059;-43
2021/09/12 10:26:40;;;;;;;2.50;2.30;;;21.90;78.30;;;;;;5118666;27;20043;-43
2021/09/12 10:29:52;;;;;;;2.30;1.90;;;21.90;78.30;;;;;;5132406;27;20555;-47
2021/09/12 10:32:39;;;;;;;2.30;2.05;;;21.90;78.40;;;;;;5133243;27;20046;-44
2021/09/12 10:35:27;;;;;;;2.05;1.85;;;21.80;78.40;;;;;;5130975;27;20388;-47
2021/09/12 10:38:01;;;;;;;2.17;1.98;;;21.80;78.30;;;;;;5132674;27;20085;-48
2021/09/12 10:40:45;;;;;;;1.85;1.65;;;21.90;78.40;;;;;;5133641;27;20075;-46
2021/09/12 10:43:30;;;;;;;2.20;1.98;;;21.90;78.50;;;;;;5132163;27;20035;-43
2021/09/12 10:45:56;;;;;;;;;;;21.80;78.40;;;;;;5115330;27;20050;-48
2021/09/12 10:48:25;;;;;;;2.25;1.75;;;21.90;78.80;;;;;;5133116;27;19919;-43
2021/09/12 10:50:51;;;;;;;2.47;2.28;;;21.90;78.50;;;;;;5120932;27;20047;-40
2021/09/12 10:53:18;;;;;;;1.88;1.77;;;21.80;78.40;;;;;;5113548;27;20126;-45
2021/09/12 10:56:05;;;;;;;2.53;1.80;;;21.80;78.50;;;;;;5112461;27;20497;-46
2021/09/12 10:58:32;;;;;;;2.25;1.77;;;21.90;78.60;;;;;;5132282;27;20122;-43
2021/09/12 11:01:02;;;;;;;2.15;1.95;;;21.90;78.50;;;;;;5132810;27;20121;-44
2021/09/12 11:03:29;;;;;;;2.42;2.00;;;21.90;78.40;;;;;;5131963;27;20095;-44
2021/09/12 11:05:55;;;;;;;2.47;1.80;;;21.90;78.50;;;;;;5131706;27;20042;-42
2021/09/12 11:08:33;;;;;;;1.75;1.63;;;21.90;78.50;;;;;;5133036;27;20043;-44
2021/09/12 11:10:59;;;;;;;2.20;2.00;;;21.90;78.50;;;;;;5132216;27;20218;-42
2021/09/12 11:13:25;;;;;;;2.00;1.80;;;21.90;78.50;;;;;;5132166;27;20181;-42
2021/09/12 11:15:52;;;;;;;2.10;1.75;;;21.80;78.40;;;;;;5131583;27;20123;-45
2021/09/12 11:18:18;;;;;;;2.33;1.80;;;21.80;78.40;;;;;;5130868;27;20047;-46
2021/09/12 11:20:48;;;;;;;1.83;1.67;;;21.90;78.40;;;;;;5128103;27;20383;-41
2021/09/12 11:23:35;;;;;;;2.17;1.80;;;21.80;78.40;;;;;;5132041;27;20444;-42
2021/09/12 11:26:01;;;;;;;1.70;1.60;;;21.90;78.50;;;;;;5129702;27;20051;-45
2021/09/12 11:28:30;;;;;;;2.28;1.90;;;21.90;78.50;;;;;;5129016;27;20047;-43
2021/09/12 11:30:57;;;;;;;2.13;1.90;;;21.90;78.50;;;;;;5131684;27;20478;-42
2021/09/12 11:33:49;;;;;;;2.33;2.05;;;21.90;78.50;;;;;;5131909;27;20043;-41
2021/09/12 11:36:16;;;;;;;1.95;1.85;;;21.90;78.50;;;;;;5132326;27;20158;-44
2021/09/12 11:38:42;;;;;;;2.20;1.70;;;21.90;78.40;;;;;;5132563;27;20142;-43
2021/09/12 11:41:07;;;;;;;1.65;1.55;;;21.80;78.40;;;;;;5131818;28;20410;-44
2021/09/12 11:43:34;;;;;;;2.88;1.55;;;21.80;78.40;;;;;;5132077;28;20039;-48
2021/09/12 11:46:10;;;;;;;2.40;2.20;;;21.90;78.40;;;;;;5132620;28;20099;-42
2021/09/12 11:48:39;;;;;;;1.95;1.70;;;21.90;78.40;;;;;;5126406;28;20150;-45
2021/09/12 11:51:06;;;;;;;1.63;1.52;;;21.80;78.40;;;;;;5113868;28;20041;-47
2021/09/12 11:53:34;;;;;;;1.80;1.70;;;21.90;78.40;;;;;;5130905;28;20388;-41
2021/09/12 11:56:10;;;;;;;1.55;1.45;;;21.90;78.40;;;;;;5131754;28;20390;-39
2021/09/12 11:58:37;;;;;;;1.60;1.42;;;21.90;78.40;;;;;;5132094;28;20065;-44
2021/09/12 12:01:05;;;;;;;1.90;1.77;;;21.90;78.40;;;;;;5134038;27;20184;-50
2021/09/12 12:03:30;;;;;;;1.52;1.42;;;21.90;78.40;;;;;;5135333;27;20038;-47
2021/09/12 12:05:58;;;;;;;2.00;1.65;;;21.90;78.40;;;;;;5136477;27;20039;-42
2021/09/12 12:08:24;;;;;;;1.70;1.60;;;21.90;78.40;;;;;;5135705;27;20052;-40
2021/09/12 12:10:50;;;;;;;1.67;1.58;;;21.90;78.40;;;;;;5135503;27;20040;-40
2021/09/12 12:13:16;;;;;;;1.92;1.70;;;21.90;78.40;;;;;;5136437;27;20047;-46
2021/09/12 12:15:45;;;;;;;1.77;1.67;;;21.90;78.40;;;;;;5136438;27;20039;-44
2021/09/12 12:18:13;;;;;;;1.90;1.67;;;21.90;78.40;;;;;;5129592;27;20096;-41
2021/09/12 12:20:40;;;;;;;2.22;1.83;;;21.90;78.40;;;;;;5117898;27;20387;-45
2021/09/12 12:23:32;;;;;;;1.60;1.50;;;21.90;78.30;;;;;;5131729;27;20501;-43
2021/09/12 12:26:17;;;;;;;1.40;1.20;;;21.90;78.50;;;;;;5127273;27;20047;-42
2021/09/12 12:28:42;;;;;;;1.60;1.50;;;21.90;78.30;;;;;;5136636;27;20132;-45
2021/09/12 12:31:09;;;;;;;1.35;1.25;;;21.90;78.40;;;;;;5136792;27;20036;-46
2021/09/12 12:33:36;;;;;;;1.60;1.50;;;21.90;78.40;;;;;;5135461;27;20043;-49
2021/09/12 12:36:09;;;;;;;1.50;1.40;;;21.90;78.40;;;;;;5136090;27;20118;-46
2021/09/12 12:38:36;;;;;;;1.83;1.70;;;21.90;78.40;;;;;;5136408;27;20042;-48
2021/09/12 12:41:24;;;;;;;1.90;1.25;;;22.00;78.40;;;;;;5135244;27;20043;-48
2021/09/12 12:43:50;;;;;;;1.65;1.55;;;21.90;78.40;;;;;;5136626;27;20062;-48
2021/09/12 12:46:16;;;;;;;1.83;1.33;;;21.90;78.40;;;;;;5136065;27;20047;-46
2021/09/12 12:48:42;;;;;;;2.13;1.50;;;21.90;78.30;;;;;;5135539;27;20035;-44
2021/09/12 12:51:12;;;;;;;1.58;1.48;;;21.90;78.40;;;;;;5135950;27;20054;-46